<?xml version="1.0" encoding="UTF-8" standalone="no" ?>
<gpx xmlns="http://www.topografix.com/GPX/1/1" xmlns:xsi="http://www.w3.org/2001/XMLSchema-instance" xsi:schemaLocation="http://www.topografix.com/GPX/1/1 http://www.topografix.com/GPX/1/1/gpx.xsd" version="1.1" creator="VisuGPX - https://www.visugpx.com">
  <metadata>
    <name>Mtp_pignan</name>
  </metadata>
  <trk>
    <name><![CDATA[Mtp_pignan_1]]></name>
    <extensions>
      <line xmlns="http://www.topografix.com/GPX/gpx_style/0/2">
        <color>0000FF</color>
        <width>4</width>
      </line>
    </extensions>
    <trkseg>
      <trkpt lat="43.60137" lon="3.83001">
        <ele>62.397751</ele>
        <time>2021-10-27T12:00:47Z</time>
      </trkpt>
      <trkpt lat="43.60107" lon="3.82967">
        <ele>63.430115</ele>
        <time>2021-10-27T12:00:57Z</time>
      </trkpt>
      <trkpt lat="43.60082" lon="3.82938">
        <ele>63.911041</ele>
        <time>2021-10-27T12:01:07Z</time>
      </trkpt>
      <trkpt lat="43.60059" lon="3.82912">
        <ele>64.26078</ele>
        <time>2021-10-27T12:01:17Z</time>
      </trkpt>
      <trkpt lat="43.60027" lon="3.82885">
        <ele>64.759766</ele>
        <time>2021-10-27T12:01:27Z</time>
      </trkpt>
      <trkpt lat="43.5999" lon="3.82855">
        <ele>65.820457</ele>
        <time>2021-10-27T12:01:37Z</time>
      </trkpt>
      <trkpt lat="43.59954" lon="3.82827">
        <ele>66.888161</ele>
        <time>2021-10-27T12:01:47Z</time>
      </trkpt>
      <trkpt lat="43.59918" lon="3.828">
        <ele>67.137505</ele>
        <time>2021-10-27T12:01:57Z</time>
      </trkpt>
      <trkpt lat="43.59879" lon="3.82769">
        <ele>65.531075</ele>
        <time>2021-10-27T12:02:07Z</time>
      </trkpt>
      <trkpt lat="43.59845" lon="3.82715">
        <ele>63.372757</ele>
        <time>2021-10-27T12:02:17Z</time>
      </trkpt>
      <trkpt lat="43.5981" lon="3.8265">
        <ele>62.577057</ele>
        <time>2021-10-27T12:02:27Z</time>
      </trkpt>
      <trkpt lat="43.59772" lon="3.826">
        <ele>63.475193</ele>
        <time>2021-10-27T12:02:37Z</time>
      </trkpt>
      <trkpt lat="43.59738" lon="3.82559">
        <ele>65.0326</ele>
        <time>2021-10-27T12:02:47Z</time>
      </trkpt>
      <trkpt lat="43.59712" lon="3.82526">
        <ele>65.819008</ele>
        <time>2021-10-27T12:02:57Z</time>
      </trkpt>
      <trkpt lat="43.59687" lon="3.82496">
        <ele>65.862923</ele>
        <time>2021-10-27T12:03:07Z</time>
      </trkpt>
      <trkpt lat="43.59663" lon="3.82466">
        <ele>65.241707</ele>
        <time>2021-10-27T12:03:17Z</time>
      </trkpt>
      <trkpt lat="43.59617" lon="3.82408">
        <ele>63.34137</ele>
        <time>2021-10-27T12:03:27Z</time>
      </trkpt>
      <trkpt lat="43.59555" lon="3.82314">
        <ele>56.625164</ele>
        <time>2021-10-27T12:03:37Z</time>
      </trkpt>
      <trkpt lat="43.5949" lon="3.82216">
        <ele>47.845066</ele>
        <time>2021-10-27T12:03:47Z</time>
      </trkpt>
      <trkpt lat="43.59473" lon="3.82152">
        <ele>41.61507</ele>
        <time>2021-10-27T12:03:57Z</time>
      </trkpt>
      <trkpt lat="43.59424" lon="3.821">
        <ele>37.612778</ele>
        <time>2021-10-27T12:04:07Z</time>
      </trkpt>
      <trkpt lat="43.5939" lon="3.82077">
        <ele>31.986877</ele>
        <time>2021-10-27T12:04:17Z</time>
      </trkpt>
      <trkpt lat="43.59355" lon="3.82103">
        <ele>28.356798</ele>
        <time>2021-10-27T12:04:27Z</time>
      </trkpt>
      <trkpt lat="43.59319" lon="3.82134">
        <ele>28.618774</ele>
        <time>2021-10-27T12:04:37Z</time>
      </trkpt>
      <trkpt lat="43.59349" lon="3.82087">
        <ele>28.761335</ele>
        <time>2021-10-27T12:04:47Z</time>
      </trkpt>
      <trkpt lat="43.59349" lon="3.82046">
        <ele>28.045654</ele>
        <time>2021-10-27T12:04:57Z</time>
      </trkpt>
      <trkpt lat="43.5931" lon="3.82015">
        <ele>27.892179</ele>
        <time>2021-10-27T12:05:07Z</time>
      </trkpt>
      <trkpt lat="43.59293" lon="3.81962">
        <ele>27.274216</ele>
        <time>2021-10-27T12:05:17Z</time>
      </trkpt>
      <trkpt lat="43.5928" lon="3.81894">
        <ele>27</ele>
        <time>2021-10-27T12:05:27Z</time>
      </trkpt>
      <trkpt lat="43.59268" lon="3.81826">
        <ele>27.659994</ele>
        <time>2021-10-27T12:05:37Z</time>
      </trkpt>
      <trkpt lat="43.59242" lon="3.81789">
        <ele>28.42169</ele>
        <time>2021-10-27T12:05:47Z</time>
      </trkpt>
      <trkpt lat="43.5921" lon="3.81761">
        <ele>28.855761</ele>
        <time>2021-10-27T12:05:57Z</time>
      </trkpt>
      <trkpt lat="43.59195" lon="3.81706">
        <ele>28.729483</ele>
        <time>2021-10-27T12:06:07Z</time>
      </trkpt>
      <trkpt lat="43.59177" lon="3.81653">
        <ele>28.428793</ele>
        <time>2021-10-27T12:06:17Z</time>
      </trkpt>
      <trkpt lat="43.5916" lon="3.8159">
        <ele>27.996908</ele>
        <time>2021-10-27T12:06:27Z</time>
      </trkpt>
      <trkpt lat="43.59144" lon="3.81518">
        <ele>27.865057</ele>
        <time>2021-10-27T12:06:37Z</time>
      </trkpt>
      <trkpt lat="43.59124" lon="3.81444">
        <ele>27.519293</ele>
        <time>2021-10-27T12:06:47Z</time>
      </trkpt>
      <trkpt lat="43.591" lon="3.81376">
        <ele>28.088379</ele>
        <time>2021-10-27T12:06:57Z</time>
      </trkpt>
      <trkpt lat="43.5907" lon="3.81319">
        <ele>28.991537</ele>
        <time>2021-10-27T12:07:07Z</time>
      </trkpt>
      <trkpt lat="43.59036" lon="3.81268">
        <ele>29.336344</ele>
        <time>2021-10-27T12:07:17Z</time>
      </trkpt>
      <trkpt lat="43.58996" lon="3.81222">
        <ele>29.315918</ele>
        <time>2021-10-27T12:07:27Z</time>
      </trkpt>
      <trkpt lat="43.58952" lon="3.81181">
        <ele>28.701498</ele>
        <time>2021-10-27T12:07:37Z</time>
      </trkpt>
      <trkpt lat="43.58909" lon="3.81141">
        <ele>28.028238</ele>
        <time>2021-10-27T12:07:47Z</time>
      </trkpt>
      <trkpt lat="43.58865" lon="3.81101">
        <ele>27.430176</ele>
        <time>2021-10-27T12:07:57Z</time>
      </trkpt>
      <trkpt lat="43.58827" lon="3.81053">
        <ele>27.409912</ele>
        <time>2021-10-27T12:08:07Z</time>
      </trkpt>
      <trkpt lat="43.58808" lon="3.80994">
        <ele>27.892416</ele>
        <time>2021-10-27T12:08:17Z</time>
      </trkpt>
      <trkpt lat="43.58802" lon="3.80936">
        <ele>29.459311</ele>
        <time>2021-10-27T12:08:27Z</time>
      </trkpt>
      <trkpt lat="43.58823" lon="3.80886">
        <ele>31.130697</ele>
        <time>2021-10-27T12:08:37Z</time>
      </trkpt>
      <trkpt lat="43.58854" lon="3.80842">
        <ele>32.847168</ele>
        <time>2021-10-27T12:08:47Z</time>
      </trkpt>
      <trkpt lat="43.58884" lon="3.80801">
        <ele>35.184338</ele>
        <time>2021-10-27T12:08:57Z</time>
      </trkpt>
      <trkpt lat="43.58911" lon="3.8076">
        <ele>36.776993</ele>
        <time>2021-10-27T12:09:07Z</time>
      </trkpt>
      <trkpt lat="43.58941" lon="3.8072">
        <ele>38.08659</ele>
        <time>2021-10-27T12:09:17Z</time>
      </trkpt>
      <trkpt lat="43.58969" lon="3.80679">
        <ele>39.14925</ele>
        <time>2021-10-27T12:09:27Z</time>
      </trkpt>
      <trkpt lat="43.59" lon="3.80638">
        <ele>39.764313</ele>
        <time>2021-10-27T12:09:37Z</time>
      </trkpt>
      <trkpt lat="43.59024" lon="3.80604">
        <ele>39.847004</ele>
        <time>2021-10-27T12:09:47Z</time>
      </trkpt>
      <trkpt lat="43.59044" lon="3.80571">
        <ele>40.255157</ele>
        <time>2021-10-27T12:09:57Z</time>
      </trkpt>
      <trkpt lat="43.59063" lon="3.80529">
        <ele>40.571301</ele>
        <time>2021-10-27T12:10:07Z</time>
      </trkpt>
      <trkpt lat="43.59082" lon="3.80475">
        <ele>40.696136</ele>
        <time>2021-10-27T12:10:17Z</time>
      </trkpt>
      <trkpt lat="43.59095" lon="3.80419">
        <ele>41.28426</ele>
        <time>2021-10-27T12:10:27Z</time>
      </trkpt>
      <trkpt lat="43.59098" lon="3.80364">
        <ele>42.109806</ele>
        <time>2021-10-27T12:10:37Z</time>
      </trkpt>
      <trkpt lat="43.59094" lon="3.80305">
        <ele>42.895412</ele>
        <time>2021-10-27T12:10:47Z</time>
      </trkpt>
      <trkpt lat="43.59082" lon="3.80245">
        <ele>43.630695</ele>
        <time>2021-10-27T12:10:57Z</time>
      </trkpt>
      <trkpt lat="43.59056" lon="3.8018">
        <ele>43.581379</ele>
        <time>2021-10-27T12:11:07Z</time>
      </trkpt>
      <trkpt lat="43.59027" lon="3.80115">
        <ele>43.253342</ele>
        <time>2021-10-27T12:11:17Z</time>
      </trkpt>
      <trkpt lat="43.59013" lon="3.8007">
        <ele>42.910156</ele>
        <time>2021-10-27T12:11:27Z</time>
      </trkpt>
      <trkpt lat="43.58989" lon="3.80021">
        <ele>42.503437</ele>
        <time>2021-10-27T12:11:37Z</time>
      </trkpt>
      <trkpt lat="43.58962" lon="3.79967">
        <ele>41.503658</ele>
        <time>2021-10-27T12:11:47Z</time>
      </trkpt>
      <trkpt lat="43.58931" lon="3.79902">
        <ele>40.579266</ele>
        <time>2021-10-27T12:11:57Z</time>
      </trkpt>
      <trkpt lat="43.58902" lon="3.79842">
        <ele>39.470295</ele>
        <time>2021-10-27T12:12:07Z</time>
      </trkpt>
      <trkpt lat="43.58908" lon="3.79789">
        <ele>38.419586</ele>
        <time>2021-10-27T12:12:17Z</time>
      </trkpt>
      <trkpt lat="43.58947" lon="3.79745">
        <ele>38.226643</ele>
        <time>2021-10-27T12:12:27Z</time>
      </trkpt>
      <trkpt lat="43.58987" lon="3.79716">
        <ele>38.185017</ele>
        <time>2021-10-27T12:12:37Z</time>
      </trkpt>
      <trkpt lat="43.58976" lon="3.79664">
        <ele>37.728027</ele>
        <time>2021-10-27T12:12:47Z</time>
      </trkpt>
      <trkpt lat="43.59016" lon="3.79609">
        <ele>36.919109</ele>
        <time>2021-10-27T12:12:57Z</time>
      </trkpt>
      <trkpt lat="43.59058" lon="3.7955">
        <ele>36.31958</ele>
        <time>2021-10-27T12:13:07Z</time>
      </trkpt>
      <trkpt lat="43.59086" lon="3.7948">
        <ele>37.440315</ele>
        <time>2021-10-27T12:13:17Z</time>
      </trkpt>
      <trkpt lat="43.59106" lon="3.79405">
        <ele>38.932041</ele>
        <time>2021-10-27T12:13:27Z</time>
      </trkpt>
      <trkpt lat="43.59113" lon="3.79328">
        <ele>40.752174</ele>
        <time>2021-10-27T12:13:37Z</time>
      </trkpt>
      <trkpt lat="43.59139" lon="3.79278">
        <ele>41.04269</ele>
        <time>2021-10-27T12:13:47Z</time>
      </trkpt>
      <trkpt lat="43.59157" lon="3.7923">
        <ele>40.032284</ele>
        <time>2021-10-27T12:13:57Z</time>
      </trkpt>
      <trkpt lat="43.59163" lon="3.7919">
        <ele>40.084515</ele>
        <time>2021-10-27T12:14:07Z</time>
      </trkpt>
      <trkpt lat="43.59161" lon="3.79163">
        <ele>41.004505</ele>
        <time>2021-10-27T12:14:17Z</time>
      </trkpt>
      <trkpt lat="43.59164" lon="3.79132">
        <ele>41.716579</ele>
        <time>2021-10-27T12:14:27Z</time>
      </trkpt>
      <trkpt lat="43.59171" lon="3.79094">
        <ele>42.48653</ele>
        <time>2021-10-27T12:14:37Z</time>
      </trkpt>
      <trkpt lat="43.59183" lon="3.79038">
        <ele>43.267208</ele>
        <time>2021-10-27T12:14:47Z</time>
      </trkpt>
      <trkpt lat="43.59172" lon="3.78985">
        <ele>44.171143</ele>
        <time>2021-10-27T12:14:57Z</time>
      </trkpt>
      <trkpt lat="43.59139" lon="3.78928">
        <ele>45.79607</ele>
        <time>2021-10-27T12:15:07Z</time>
      </trkpt>
      <trkpt lat="43.59121" lon="3.78875">
        <ele>46.239826</ele>
        <time>2021-10-27T12:15:17Z</time>
      </trkpt>
      <trkpt lat="43.591" lon="3.78835">
        <ele>46.58366</ele>
        <time>2021-10-27T12:15:27Z</time>
      </trkpt>
      <trkpt lat="43.59086" lon="3.78798">
        <ele>46.964844</ele>
        <time>2021-10-27T12:15:37Z</time>
      </trkpt>
      <trkpt lat="43.59078" lon="3.78761">
        <ele>47.684734</ele>
        <time>2021-10-27T12:15:47Z</time>
      </trkpt>
      <trkpt lat="43.59065" lon="3.78734">
        <ele>48.421223</ele>
        <time>2021-10-27T12:15:57Z</time>
      </trkpt>
      <trkpt lat="43.59068" lon="3.78702">
        <ele>49.426758</ele>
        <time>2021-10-27T12:16:07Z</time>
      </trkpt>
      <trkpt lat="43.59081" lon="3.78668">
        <ele>51.155109</ele>
        <time>2021-10-27T12:16:17Z</time>
      </trkpt>
      <trkpt lat="43.59094" lon="3.78628">
        <ele>53.586243</ele>
        <time>2021-10-27T12:16:27Z</time>
      </trkpt>
      <trkpt lat="43.591" lon="3.78593">
        <ele>56.154064</ele>
        <time>2021-10-27T12:16:37Z</time>
      </trkpt>
      <trkpt lat="43.59105" lon="3.78562">
        <ele>57.444996</ele>
        <time>2021-10-27T12:16:47Z</time>
      </trkpt>
      <trkpt lat="43.59103" lon="3.78525">
        <ele>58.779285</ele>
        <time>2021-10-27T12:16:57Z</time>
      </trkpt>
      <trkpt lat="43.59103" lon="3.78488">
        <ele>60.373615</ele>
        <time>2021-10-27T12:17:07Z</time>
      </trkpt>
      <trkpt lat="43.59098" lon="3.78457">
        <ele>61.921291</ele>
        <time>2021-10-27T12:17:17Z</time>
      </trkpt>
      <trkpt lat="43.591" lon="3.78429">
        <ele>62.437119</ele>
        <time>2021-10-27T12:17:27Z</time>
      </trkpt>
      <trkpt lat="43.59098" lon="3.78407">
        <ele>62.857975</ele>
        <time>2021-10-27T12:17:37Z</time>
      </trkpt>
      <trkpt lat="43.59094" lon="3.78384">
        <ele>62.774502</ele>
        <time>2021-10-27T12:17:47Z</time>
      </trkpt>
      <trkpt lat="43.59094" lon="3.78353">
        <ele>62.503811</ele>
        <time>2021-10-27T12:17:57Z</time>
      </trkpt>
      <trkpt lat="43.59082" lon="3.78316">
        <ele>62.355957</ele>
        <time>2021-10-27T12:18:07Z</time>
      </trkpt>
      <trkpt lat="43.59065" lon="3.7828">
        <ele>62.746906</ele>
        <time>2021-10-27T12:18:17Z</time>
      </trkpt>
      <trkpt lat="43.59045" lon="3.78243">
        <ele>63.058613</ele>
        <time>2021-10-27T12:18:27Z</time>
      </trkpt>
      <trkpt lat="43.59016" lon="3.78232">
        <ele>62.814056</ele>
        <time>2021-10-27T12:18:37Z</time>
      </trkpt>
      <trkpt lat="43.58999" lon="3.7823">
        <ele>62.871582</ele>
        <time>2021-10-27T12:18:47Z</time>
      </trkpt>
      <trkpt lat="43.58992" lon="3.78208">
        <ele>62.504883</ele>
        <time>2021-10-27T12:18:57Z</time>
      </trkpt>
      <trkpt lat="43.5897" lon="3.78186">
        <ele>61.581226</ele>
        <time>2021-10-27T12:19:07Z</time>
      </trkpt>
      <trkpt lat="43.58929" lon="3.78187">
        <ele>60.380962</ele>
        <time>2021-10-27T12:19:17Z</time>
      </trkpt>
      <trkpt lat="43.58892" lon="3.78186">
        <ele>60.686436</ele>
        <time>2021-10-27T12:19:27Z</time>
      </trkpt>
      <trkpt lat="43.58859" lon="3.78188">
        <ele>60.375172</ele>
        <time>2021-10-27T12:19:37Z</time>
      </trkpt>
      <trkpt lat="43.58815" lon="3.78199">
        <ele>59.54744</ele>
        <time>2021-10-27T12:19:47Z</time>
      </trkpt>
      <trkpt lat="43.58778" lon="3.78201">
        <ele>59.3531</ele>
        <time>2021-10-27T12:19:57Z</time>
      </trkpt>
      <trkpt lat="43.58744" lon="3.78205">
        <ele>57.021084</ele>
        <time>2021-10-27T12:20:07Z</time>
      </trkpt>
      <trkpt lat="43.58706" lon="3.78211">
        <ele>55.04187</ele>
        <time>2021-10-27T12:20:17Z</time>
      </trkpt>
      <trkpt lat="43.58671" lon="3.78233">
        <ele>52.154194</ele>
        <time>2021-10-27T12:20:27Z</time>
      </trkpt>
      <trkpt lat="43.58629" lon="3.78273">
        <ele>50.389404</ele>
        <time>2021-10-27T12:20:37Z</time>
      </trkpt>
      <trkpt lat="43.58588" lon="3.7825">
        <ele>47.253338</ele>
        <time>2021-10-27T12:20:47Z</time>
      </trkpt>
      <trkpt lat="43.58541" lon="3.78264">
        <ele>44.025471</ele>
        <time>2021-10-27T12:20:57Z</time>
      </trkpt>
      <trkpt lat="43.58507" lon="3.78243">
        <ele>42.054733</ele>
        <time>2021-10-27T12:21:07Z</time>
      </trkpt>
      <trkpt lat="43.58492" lon="3.78196">
        <ele>41.248188</ele>
        <time>2021-10-27T12:21:17Z</time>
      </trkpt>
      <trkpt lat="43.58491" lon="3.78163">
        <ele>40.879047</ele>
        <time>2021-10-27T12:21:37Z</time>
      </trkpt>
      <trkpt lat="43.58491" lon="3.781">
        <ele>40.300968</ele>
        <time>2021-10-27T12:21:57Z</time>
      </trkpt>
      <trkpt lat="43.5849" lon="3.78028">
        <ele>39.990047</ele>
        <time>2021-10-27T12:22:07Z</time>
      </trkpt>
      <trkpt lat="43.58497" lon="3.77959">
        <ele>38.325115</ele>
        <time>2021-10-27T12:22:17Z</time>
      </trkpt>
      <trkpt lat="43.5851" lon="3.77893">
        <ele>37.392311</ele>
        <time>2021-10-27T12:22:27Z</time>
      </trkpt>
      <trkpt lat="43.58531" lon="3.7783">
        <ele>37.524658</ele>
        <time>2021-10-27T12:22:37Z</time>
      </trkpt>
      <trkpt lat="43.58556" lon="3.7777">
        <ele>37.866779</ele>
        <time>2021-10-27T12:22:47Z</time>
      </trkpt>
      <trkpt lat="43.58585" lon="3.77715">
        <ele>38.530926</ele>
        <time>2021-10-27T12:22:57Z</time>
      </trkpt>
      <trkpt lat="43.58612" lon="3.77662">
        <ele>39.352215</ele>
        <time>2021-10-27T12:23:07Z</time>
      </trkpt>
      <trkpt lat="43.5864" lon="3.77609">
        <ele>40.212482</ele>
        <time>2021-10-27T12:23:17Z</time>
      </trkpt>
      <trkpt lat="43.58666" lon="3.77555">
        <ele>41.400879</ele>
        <time>2021-10-27T12:23:27Z</time>
      </trkpt>
      <trkpt lat="43.5869" lon="3.77501">
        <ele>42.511963</ele>
        <time>2021-10-27T12:23:37Z</time>
      </trkpt>
      <trkpt lat="43.58707" lon="3.77447">
        <ele>43.34906</ele>
        <time>2021-10-27T12:23:47Z</time>
      </trkpt>
      <trkpt lat="43.5872" lon="3.77392">
        <ele>44.098145</ele>
        <time>2021-10-27T12:23:57Z</time>
      </trkpt>
      <trkpt lat="43.58733" lon="3.77338">
        <ele>44.631104</ele>
        <time>2021-10-27T12:24:07Z</time>
      </trkpt>
      <trkpt lat="43.58745" lon="3.77283">
        <ele>45.195557</ele>
        <time>2021-10-27T12:24:17Z</time>
      </trkpt>
      <trkpt lat="43.58757" lon="3.77229">
        <ele>45.773251</ele>
        <time>2021-10-27T12:24:27Z</time>
      </trkpt>
      <trkpt lat="43.58769" lon="3.77174">
        <ele>45.600342</ele>
        <time>2021-10-27T12:24:37Z</time>
      </trkpt>
      <trkpt lat="43.58782" lon="3.77118">
        <ele>45.534992</ele>
        <time>2021-10-27T12:24:47Z</time>
      </trkpt>
      <trkpt lat="43.58794" lon="3.77069">
        <ele>45.975208</ele>
        <time>2021-10-27T12:24:57Z</time>
      </trkpt>
      <trkpt lat="43.58805" lon="3.77016">
        <ele>46.542027</ele>
        <time>2021-10-27T12:25:07Z</time>
      </trkpt>
      <trkpt lat="43.58815" lon="3.7697">
        <ele>46.775555</ele>
        <time>2021-10-27T12:25:17Z</time>
      </trkpt>
      <trkpt lat="43.58826" lon="3.76925">
        <ele>46.930523</ele>
        <time>2021-10-27T12:25:27Z</time>
      </trkpt>
      <trkpt lat="43.58837" lon="3.76873">
        <ele>47.111923</ele>
        <time>2021-10-27T12:25:37Z</time>
      </trkpt>
      <trkpt lat="43.58846" lon="3.7682">
        <ele>47.790409</ele>
        <time>2021-10-27T12:25:47Z</time>
      </trkpt>
      <trkpt lat="43.58854" lon="3.76771">
        <ele>48</ele>
        <time>2021-10-27T12:25:57Z</time>
      </trkpt>
      <trkpt lat="43.58854" lon="3.76736">
        <ele>48.25769</ele>
        <time>2021-10-27T12:26:07Z</time>
      </trkpt>
      <trkpt lat="43.58854" lon="3.76736">
        <ele>48.25769</ele>
        <time>2021-10-27T12:36:47Z</time>
      </trkpt>
      <trkpt lat="43.58844" lon="3.76648">
        <ele>49.546875</ele>
        <time>2021-10-27T12:37:07Z</time>
      </trkpt>
      <trkpt lat="43.58827" lon="3.76593">
        <ele>50.15239</ele>
        <time>2021-10-27T12:37:17Z</time>
      </trkpt>
      <trkpt lat="43.58805" lon="3.76535">
        <ele>50.637157</ele>
        <time>2021-10-27T12:37:27Z</time>
      </trkpt>
      <trkpt lat="43.58781" lon="3.76482">
        <ele>50.736736</ele>
        <time>2021-10-27T12:37:37Z</time>
      </trkpt>
      <trkpt lat="43.58757" lon="3.76429">
        <ele>50.831379</ele>
        <time>2021-10-27T12:37:47Z</time>
      </trkpt>
      <trkpt lat="43.58735" lon="3.76375">
        <ele>50.965225</ele>
        <time>2021-10-27T12:37:57Z</time>
      </trkpt>
      <trkpt lat="43.58711" lon="3.76322">
        <ele>51.500458</ele>
        <time>2021-10-27T12:38:07Z</time>
      </trkpt>
      <trkpt lat="43.58696" lon="3.7627">
        <ele>52.226826</ele>
        <time>2021-10-27T12:38:17Z</time>
      </trkpt>
      <trkpt lat="43.58669" lon="3.76222">
        <ele>53.15823</ele>
        <time>2021-10-27T12:38:27Z</time>
      </trkpt>
      <trkpt lat="43.58643" lon="3.76168">
        <ele>53.974651</ele>
        <time>2021-10-27T12:38:37Z</time>
      </trkpt>
      <trkpt lat="43.58616" lon="3.76111">
        <ele>53.739819</ele>
        <time>2021-10-27T12:38:47Z</time>
      </trkpt>
      <trkpt lat="43.58591" lon="3.76054">
        <ele>53.833851</ele>
        <time>2021-10-27T12:38:57Z</time>
      </trkpt>
      <trkpt lat="43.58569" lon="3.76">
        <ele>52.994701</ele>
        <time>2021-10-27T12:39:07Z</time>
      </trkpt>
      <trkpt lat="43.58544" lon="3.75945">
        <ele>52.104172</ele>
        <time>2021-10-27T12:39:17Z</time>
      </trkpt>
      <trkpt lat="43.5852" lon="3.75888">
        <ele>52.20644</ele>
        <time>2021-10-27T12:39:27Z</time>
      </trkpt>
      <trkpt lat="43.58497" lon="3.75833">
        <ele>52.951267</ele>
        <time>2021-10-27T12:39:37Z</time>
      </trkpt>
      <trkpt lat="43.58476" lon="3.75779">
        <ele>52.957031</ele>
        <time>2021-10-27T12:39:47Z</time>
      </trkpt>
      <trkpt lat="43.58455" lon="3.7573">
        <ele>53.527344</ele>
        <time>2021-10-27T12:39:57Z</time>
      </trkpt>
      <trkpt lat="43.58427" lon="3.75676">
        <ele>53.525883</ele>
        <time>2021-10-27T12:40:07Z</time>
      </trkpt>
      <trkpt lat="43.58403" lon="3.75619">
        <ele>53.139462</ele>
        <time>2021-10-27T12:40:17Z</time>
      </trkpt>
      <trkpt lat="43.58377" lon="3.75559">
        <ele>52.406158</ele>
        <time>2021-10-27T12:40:27Z</time>
      </trkpt>
      <trkpt lat="43.5835" lon="3.75501">
        <ele>51.853756</ele>
        <time>2021-10-27T12:40:37Z</time>
      </trkpt>
      <trkpt lat="43.58323" lon="3.75441">
        <ele>51.559082</ele>
        <time>2021-10-27T12:40:47Z</time>
      </trkpt>
      <trkpt lat="43.58295" lon="3.75379">
        <ele>52.609985</ele>
        <time>2021-10-27T12:40:57Z</time>
      </trkpt>
      <trkpt lat="43.58269" lon="3.75319">
        <ele>53.486065</ele>
        <time>2021-10-27T12:41:07Z</time>
      </trkpt>
      <trkpt lat="43.58244" lon="3.75263">
        <ele>54.598186</ele>
        <time>2021-10-27T12:41:17Z</time>
      </trkpt>
      <trkpt lat="43.5822" lon="3.75208">
        <ele>56.135418</ele>
        <time>2021-10-27T12:41:27Z</time>
      </trkpt>
      <trkpt lat="43.58194" lon="3.75151">
        <ele>56.974308</ele>
        <time>2021-10-27T12:41:37Z</time>
      </trkpt>
      <trkpt lat="43.58171" lon="3.75095">
        <ele>56.835892</ele>
        <time>2021-10-27T12:41:47Z</time>
      </trkpt>
      <trkpt lat="43.58147" lon="3.75044">
        <ele>56.556072</ele>
        <time>2021-10-27T12:41:57Z</time>
      </trkpt>
      <trkpt lat="43.58122" lon="3.74988">
        <ele>56.273075</ele>
        <time>2021-10-27T12:42:07Z</time>
      </trkpt>
      <trkpt lat="43.58094" lon="3.7493">
        <ele>55.508465</ele>
        <time>2021-10-27T12:42:17Z</time>
      </trkpt>
      <trkpt lat="43.58068" lon="3.74876">
        <ele>55.078022</ele>
        <time>2021-10-27T12:42:27Z</time>
      </trkpt>
      <trkpt lat="43.58044" lon="3.74826">
        <ele>55.489582</ele>
        <time>2021-10-27T12:42:37Z</time>
      </trkpt>
      <trkpt lat="43.58019" lon="3.74775">
        <ele>55.72757</ele>
        <time>2021-10-27T12:42:47Z</time>
      </trkpt>
      <trkpt lat="43.57994" lon="3.74721">
        <ele>55.573315</ele>
        <time>2021-10-27T12:42:57Z</time>
      </trkpt>
      <trkpt lat="43.57968" lon="3.74667">
        <ele>56.366962</ele>
        <time>2021-10-27T12:43:07Z</time>
      </trkpt>
      <trkpt lat="43.57943" lon="3.74616">
        <ele>57.056171</ele>
        <time>2021-10-27T12:43:17Z</time>
      </trkpt>
      <trkpt lat="43.57926" lon="3.74563">
        <ele>59.193874</ele>
        <time>2021-10-27T12:43:27Z</time>
      </trkpt>
      <trkpt lat="43.57919" lon="3.74526">
        <ele>61.459232</ele>
        <time>2021-10-27T12:43:37Z</time>
      </trkpt>
      <trkpt lat="43.57904" lon="3.74496">
        <ele>62.659912</ele>
        <time>2021-10-27T12:43:47Z</time>
      </trkpt>
      <trkpt lat="43.57888" lon="3.74461">
        <ele>63.294147</ele>
        <time>2021-10-27T12:43:57Z</time>
      </trkpt>
      <trkpt lat="43.57873" lon="3.74429">
        <ele>63.790257</ele>
        <time>2021-10-27T12:44:07Z</time>
      </trkpt>
      <trkpt lat="43.5785" lon="3.74395">
        <ele>63.554333</ele>
        <time>2021-10-27T12:44:17Z</time>
      </trkpt>
      <trkpt lat="43.57815" lon="3.74335">
        <ele>62.54071</ele>
        <time>2021-10-27T12:44:27Z</time>
      </trkpt>
      <trkpt lat="43.57784" lon="3.74274">
        <ele>61.737766</ele>
        <time>2021-10-27T12:44:37Z</time>
      </trkpt>
      <trkpt lat="43.57768" lon="3.74213">
        <ele>61.920795</ele>
        <time>2021-10-27T12:44:47Z</time>
      </trkpt>
      <trkpt lat="43.57768" lon="3.74161">
        <ele>64.332588</ele>
        <time>2021-10-27T12:44:57Z</time>
      </trkpt>
      <trkpt lat="43.57781" lon="3.74115">
        <ele>66.995277</ele>
        <time>2021-10-27T12:45:07Z</time>
      </trkpt>
      <trkpt lat="43.5777" lon="3.74134">
        <ele>68.229446</ele>
        <time>2021-10-27T12:45:17Z</time>
      </trkpt>
      <trkpt lat="43.57748" lon="3.74173">
        <ele>66.387093</ele>
        <time>2021-10-27T12:45:27Z</time>
      </trkpt>
      <trkpt lat="43.57747" lon="3.74213">
        <ele>63.522999</ele>
        <time>2021-10-27T12:45:37Z</time>
      </trkpt>
      <trkpt lat="43.57744" lon="3.7426">
        <ele>61.204426</ele>
        <time>2021-10-27T12:45:47Z</time>
      </trkpt>
      <trkpt lat="43.57736" lon="3.74289">
        <ele>57.905239</ele>
        <time>2021-10-27T12:45:57Z</time>
      </trkpt>
      <trkpt lat="43.57711" lon="3.74264">
        <ele>57.670898</ele>
        <time>2021-10-27T12:46:07Z</time>
      </trkpt>
      <trkpt lat="43.57683" lon="3.74242">
        <ele>58.18364</ele>
        <time>2021-10-27T12:46:17Z</time>
      </trkpt>
      <trkpt lat="43.57653" lon="3.74233">
        <ele>57.770893</ele>
        <time>2021-10-27T12:46:27Z</time>
      </trkpt>
      <trkpt lat="43.57649" lon="3.74207">
        <ele>57.516521</ele>
        <time>2021-10-27T12:46:37Z</time>
      </trkpt>
      <trkpt lat="43.57644" lon="3.74177">
        <ele>59.557781</ele>
        <time>2021-10-27T12:46:47Z</time>
      </trkpt>
      <trkpt lat="43.57624" lon="3.74144">
        <ele>60.861492</ele>
        <time>2021-10-27T12:46:57Z</time>
      </trkpt>
      <trkpt lat="43.57592" lon="3.74107">
        <ele>61.964848</ele>
        <time>2021-10-27T12:47:07Z</time>
      </trkpt>
      <trkpt lat="43.57559" lon="3.74071">
        <ele>62.172028</ele>
        <time>2021-10-27T12:47:17Z</time>
      </trkpt>
      <trkpt lat="43.57527" lon="3.74037">
        <ele>61.73016</ele>
        <time>2021-10-27T12:47:27Z</time>
      </trkpt>
      <trkpt lat="43.57496" lon="3.73998">
        <ele>60.522335</ele>
        <time>2021-10-27T12:47:37Z</time>
      </trkpt>
      <trkpt lat="43.57464" lon="3.73956">
        <ele>59.402821</ele>
        <time>2021-10-27T12:47:47Z</time>
      </trkpt>
      <trkpt lat="43.57437" lon="3.73911">
        <ele>58.18399</ele>
        <time>2021-10-27T12:47:57Z</time>
      </trkpt>
      <trkpt lat="43.57408" lon="3.73859">
        <ele>58.067875</ele>
        <time>2021-10-27T12:48:07Z</time>
      </trkpt>
      <trkpt lat="43.57379" lon="3.73806">
        <ele>58.143429</ele>
        <time>2021-10-27T12:48:17Z</time>
      </trkpt>
      <trkpt lat="43.57349" lon="3.73756">
        <ele>58.695801</ele>
        <time>2021-10-27T12:48:27Z</time>
      </trkpt>
      <trkpt lat="43.5732" lon="3.73704">
        <ele>58.738525</ele>
        <time>2021-10-27T12:48:37Z</time>
      </trkpt>
      <trkpt lat="43.57291" lon="3.7365">
        <ele>57.579437</ele>
        <time>2021-10-27T12:48:47Z</time>
      </trkpt>
      <trkpt lat="43.57262" lon="3.73597">
        <ele>57.051434</ele>
        <time>2021-10-27T12:48:57Z</time>
      </trkpt>
      <trkpt lat="43.57239" lon="3.73553">
        <ele>57.050793</ele>
        <time>2021-10-27T12:49:07Z</time>
      </trkpt>
      <trkpt lat="43.57205" lon="3.73544">
        <ele>57.445232</ele>
        <time>2021-10-27T12:49:17Z</time>
      </trkpt>
      <trkpt lat="43.57187" lon="3.73542">
        <ele>57.533207</ele>
        <time>2021-10-27T12:49:27Z</time>
      </trkpt>
      <trkpt lat="43.572" lon="3.73514">
        <ele>58.223789</ele>
        <time>2021-10-27T12:49:37Z</time>
      </trkpt>
      <trkpt lat="43.57221" lon="3.73487">
        <ele>59.638702</ele>
        <time>2021-10-27T12:49:47Z</time>
      </trkpt>
      <trkpt lat="43.57222" lon="3.73455">
        <ele>61.338718</ele>
        <time>2021-10-27T12:49:57Z</time>
      </trkpt>
      <trkpt lat="43.57238" lon="3.73426">
        <ele>63.609295</ele>
        <time>2021-10-27T12:50:07Z</time>
      </trkpt>
      <trkpt lat="43.57256" lon="3.73395">
        <ele>65.924187</ele>
        <time>2021-10-27T12:50:17Z</time>
      </trkpt>
      <trkpt lat="43.57281" lon="3.73364">
        <ele>68.206787</ele>
        <time>2021-10-27T12:50:27Z</time>
      </trkpt>
      <trkpt lat="43.57301" lon="3.73324">
        <ele>70.669189</ele>
        <time>2021-10-27T12:50:37Z</time>
      </trkpt>
      <trkpt lat="43.57316" lon="3.73279">
        <ele>72.966164</ele>
        <time>2021-10-27T12:50:47Z</time>
      </trkpt>
      <trkpt lat="43.57327" lon="3.73239">
        <ele>74.95713</ele>
        <time>2021-10-27T12:50:57Z</time>
      </trkpt>
      <trkpt lat="43.57346" lon="3.73204">
        <ele>75.47245</ele>
        <time>2021-10-27T12:51:07Z</time>
      </trkpt>
      <trkpt lat="43.57364" lon="3.73166">
        <ele>75.26413</ele>
        <time>2021-10-27T12:51:17Z</time>
      </trkpt>
      <trkpt lat="43.5736" lon="3.73126">
        <ele>75.033028</ele>
        <time>2021-10-27T12:51:27Z</time>
      </trkpt>
      <trkpt lat="43.57345" lon="3.73083">
        <ele>75.861229</ele>
        <time>2021-10-27T12:51:37Z</time>
      </trkpt>
      <trkpt lat="43.57332" lon="3.73045">
        <ele>77.183533</ele>
        <time>2021-10-27T12:51:47Z</time>
      </trkpt>
      <trkpt lat="43.57326" lon="3.73001">
        <ele>78.874512</ele>
        <time>2021-10-27T12:51:57Z</time>
      </trkpt>
      <trkpt lat="43.57318" lon="3.72966">
        <ele>80.782066</ele>
        <time>2021-10-27T12:52:07Z</time>
      </trkpt>
      <trkpt lat="43.57331" lon="3.72938">
        <ele>83.036949</ele>
        <time>2021-10-27T12:52:17Z</time>
      </trkpt>
      <trkpt lat="43.57342" lon="3.72921">
        <ele>83.423096</ele>
        <time>2021-10-27T12:52:27Z</time>
      </trkpt>
      <trkpt lat="43.57365" lon="3.72881">
        <ele>84.674721</ele>
        <time>2021-10-27T12:52:47Z</time>
      </trkpt>
      <trkpt lat="43.57391" lon="3.72853">
        <ele>85.743004</ele>
        <time>2021-10-27T12:52:57Z</time>
      </trkpt>
      <trkpt lat="43.57419" lon="3.72832">
        <ele>85.935143</ele>
        <time>2021-10-27T12:53:07Z</time>
      </trkpt>
      <trkpt lat="43.57447" lon="3.72812">
        <ele>85.115456</ele>
        <time>2021-10-27T12:53:17Z</time>
      </trkpt>
      <trkpt lat="43.57477" lon="3.72792">
        <ele>84.49955</ele>
        <time>2021-10-27T12:53:27Z</time>
      </trkpt>
      <trkpt lat="43.57502" lon="3.72775">
        <ele>84.313286</ele>
        <time>2021-10-27T12:53:37Z</time>
      </trkpt>
      <trkpt lat="43.57522" lon="3.72742">
        <ele>83.442871</ele>
        <time>2021-10-27T12:53:47Z</time>
      </trkpt>
      <trkpt lat="43.57525" lon="3.727">
        <ele>82.747955</ele>
        <time>2021-10-27T12:53:57Z</time>
      </trkpt>
      <trkpt lat="43.57519" lon="3.72658">
        <ele>82.873825</ele>
        <time>2021-10-27T12:54:07Z</time>
      </trkpt>
      <trkpt lat="43.57511" lon="3.72621">
        <ele>83.660835</ele>
        <time>2021-10-27T12:54:17Z</time>
      </trkpt>
      <trkpt lat="43.57502" lon="3.72591">
        <ele>84.578865</ele>
        <time>2021-10-27T12:54:27Z</time>
      </trkpt>
      <trkpt lat="43.57488" lon="3.72562">
        <ele>85.444191</ele>
        <time>2021-10-27T12:54:37Z</time>
      </trkpt>
      <trkpt lat="43.57471" lon="3.72537">
        <ele>86.176025</ele>
        <time>2021-10-27T12:54:47Z</time>
      </trkpt>
      <trkpt lat="43.57451" lon="3.72523">
        <ele>86.987587</ele>
        <time>2021-10-27T12:54:57Z</time>
      </trkpt>
      <trkpt lat="43.57431" lon="3.72504">
        <ele>88.345863</ele>
        <time>2021-10-27T12:55:07Z</time>
      </trkpt>
      <trkpt lat="43.57415" lon="3.7248">
        <ele>89.864136</ele>
        <time>2021-10-27T12:55:17Z</time>
      </trkpt>
      <trkpt lat="43.57398" lon="3.72459">
        <ele>91.274315</ele>
        <time>2021-10-27T12:55:27Z</time>
      </trkpt>
      <trkpt lat="43.57381" lon="3.72434">
        <ele>92.513695</ele>
        <time>2021-10-27T12:55:37Z</time>
      </trkpt>
      <trkpt lat="43.57365" lon="3.72409">
        <ele>94.186211</ele>
        <time>2021-10-27T12:55:47Z</time>
      </trkpt>
      <trkpt lat="43.57348" lon="3.72386">
        <ele>96.005653</ele>
        <time>2021-10-27T12:55:57Z</time>
      </trkpt>
      <trkpt lat="43.57341" lon="3.72363">
        <ele>97.46521</ele>
        <time>2021-10-27T12:56:07Z</time>
      </trkpt>
      <trkpt lat="43.57345" lon="3.72345">
        <ele>97.699768</ele>
        <time>2021-10-27T12:56:17Z</time>
      </trkpt>
      <trkpt lat="43.57345" lon="3.72324">
        <ele>97.814606</ele>
        <time>2021-10-27T12:56:27Z</time>
      </trkpt>
      <trkpt lat="43.57338" lon="3.72302">
        <ele>98.210846</ele>
        <time>2021-10-27T12:56:37Z</time>
      </trkpt>
      <trkpt lat="43.57327" lon="3.7228">
        <ele>99.020935</ele>
        <time>2021-10-27T12:56:47Z</time>
      </trkpt>
      <trkpt lat="43.57311" lon="3.72248">
        <ele>99.774925</ele>
        <time>2021-10-27T12:56:57Z</time>
      </trkpt>
      <trkpt lat="43.57294" lon="3.7221">
        <ele>100.352272</ele>
        <time>2021-10-27T12:57:07Z</time>
      </trkpt>
      <trkpt lat="43.57276" lon="3.72184">
        <ele>100.401314</ele>
        <time>2021-10-27T12:57:17Z</time>
      </trkpt>
      <trkpt lat="43.57258" lon="3.7217">
        <ele>100.385315</ele>
        <time>2021-10-27T12:57:27Z</time>
      </trkpt>
      <trkpt lat="43.57243" lon="3.72139">
        <ele>99.908997</ele>
        <time>2021-10-27T12:57:37Z</time>
      </trkpt>
      <trkpt lat="43.57221" lon="3.72121">
        <ele>99.52713</ele>
        <time>2021-10-27T12:57:47Z</time>
      </trkpt>
      <trkpt lat="43.57209" lon="3.7209">
        <ele>99.016777</ele>
        <time>2021-10-27T12:57:57Z</time>
      </trkpt>
      <trkpt lat="43.57209" lon="3.72049">
        <ele>98.049232</ele>
        <time>2021-10-27T12:58:07Z</time>
      </trkpt>
      <trkpt lat="43.572" lon="3.72006">
        <ele>96.503548</ele>
        <time>2021-10-27T12:58:17Z</time>
      </trkpt>
      <trkpt lat="43.57227" lon="3.71981">
        <ele>95.211975</ele>
        <time>2021-10-27T12:58:27Z</time>
      </trkpt>
      <trkpt lat="43.57272" lon="3.71968">
        <ele>95.552101</ele>
        <time>2021-10-27T12:58:37Z</time>
      </trkpt>
      <trkpt lat="43.57306" lon="3.71941">
        <ele>95.67733</ele>
        <time>2021-10-27T12:58:47Z</time>
      </trkpt>
      <trkpt lat="43.57339" lon="3.71915">
        <ele>95.774086</ele>
        <time>2021-10-27T12:58:57Z</time>
      </trkpt>
      <trkpt lat="43.57375" lon="3.71887">
        <ele>96.370201</ele>
        <time>2021-10-27T12:59:07Z</time>
      </trkpt>
      <trkpt lat="43.57407" lon="3.71887">
        <ele>97.354088</ele>
        <time>2021-10-27T12:59:17Z</time>
      </trkpt>
      <trkpt lat="43.57421" lon="3.71902">
        <ele>98.524239</ele>
        <time>2021-10-27T12:59:27Z</time>
      </trkpt>
      <trkpt lat="43.57449" lon="3.71925">
        <ele>99.176308</ele>
        <time>2021-10-27T12:59:37Z</time>
      </trkpt>
      <trkpt lat="43.57488" lon="3.71936">
        <ele>100.074402</ele>
        <time>2021-10-27T12:59:47Z</time>
      </trkpt>
      <trkpt lat="43.57528" lon="3.71948">
        <ele>100.161263</ele>
        <time>2021-10-27T12:59:57Z</time>
      </trkpt>
      <trkpt lat="43.57571" lon="3.71964">
        <ele>100.401756</ele>
        <time>2021-10-27T13:00:07Z</time>
      </trkpt>
      <trkpt lat="43.57624" lon="3.71984">
        <ele>100.216682</ele>
        <time>2021-10-27T13:00:17Z</time>
      </trkpt>
      <trkpt lat="43.57703" lon="3.71986">
        <ele>99.74292</ele>
        <time>2021-10-27T13:00:27Z</time>
      </trkpt>
      <trkpt lat="43.57765" lon="3.72057">
        <ele>98.465942</ele>
        <time>2021-10-27T13:00:37Z</time>
      </trkpt>
      <trkpt lat="43.57794" lon="3.721">
        <ele>96.217323</ele>
        <time>2021-10-27T13:00:47Z</time>
      </trkpt>
      <trkpt lat="43.57817" lon="3.7213">
        <ele>95.929558</ele>
        <time>2021-10-27T13:00:57Z</time>
      </trkpt>
      <trkpt lat="43.57841" lon="3.72157">
        <ele>96.778679</ele>
        <time>2021-10-27T13:01:07Z</time>
      </trkpt>
      <trkpt lat="43.57865" lon="3.72182">
        <ele>98.00988</ele>
        <time>2021-10-27T13:01:17Z</time>
      </trkpt>
      <trkpt lat="43.57889" lon="3.72208">
        <ele>99.128296</ele>
        <time>2021-10-27T13:01:27Z</time>
      </trkpt>
      <trkpt lat="43.57915" lon="3.72231">
        <ele>100.695404</ele>
        <time>2021-10-27T13:01:37Z</time>
      </trkpt>
      <trkpt lat="43.57943" lon="3.72249">
        <ele>102.623207</ele>
        <time>2021-10-27T13:01:47Z</time>
      </trkpt>
      <trkpt lat="43.57936" lon="3.72287">
        <ele>103.846352</ele>
        <time>2021-10-27T13:01:57Z</time>
      </trkpt>
      <trkpt lat="43.57921" lon="3.72344">
        <ele>102.867851</ele>
        <time>2021-10-27T13:02:07Z</time>
      </trkpt>
      <trkpt lat="43.57892" lon="3.72397">
        <ele>101.612709</ele>
        <time>2021-10-27T13:02:17Z</time>
      </trkpt>
      <trkpt lat="43.57864" lon="3.72458">
        <ele>99.879395</ele>
        <time>2021-10-27T13:02:27Z</time>
      </trkpt>
      <trkpt lat="43.57858" lon="3.72528">
        <ele>97.091774</ele>
        <time>2021-10-27T13:02:37Z</time>
      </trkpt>
      <trkpt lat="43.57854" lon="3.726">
        <ele>95.52121</ele>
        <time>2021-10-27T13:02:47Z</time>
      </trkpt>
      <trkpt lat="43.57842" lon="3.72672">
        <ele>93.644768</ele>
        <time>2021-10-27T13:02:57Z</time>
      </trkpt>
      <trkpt lat="43.57838" lon="3.72744">
        <ele>92.729309</ele>
        <time>2021-10-27T13:03:07Z</time>
      </trkpt>
      <trkpt lat="43.57821" lon="3.72829">
        <ele>92.731499</ele>
        <time>2021-10-27T13:03:17Z</time>
      </trkpt>
      <trkpt lat="43.57817" lon="3.72895">
        <ele>93.683105</ele>
        <time>2021-10-27T13:03:27Z</time>
      </trkpt>
      <trkpt lat="43.57812" lon="3.72966">
        <ele>94.139977</ele>
        <time>2021-10-27T13:03:37Z</time>
      </trkpt>
      <trkpt lat="43.57822" lon="3.73018">
        <ele>96.556152</ele>
        <time>2021-10-27T13:03:47Z</time>
      </trkpt>
      <trkpt lat="43.57827" lon="3.73078">
        <ele>98.333473</ele>
        <time>2021-10-27T13:03:57Z</time>
      </trkpt>
      <trkpt lat="43.57808" lon="3.73129">
        <ele>100.037506</ele>
        <time>2021-10-27T13:04:07Z</time>
      </trkpt>
      <trkpt lat="43.57805" lon="3.7316">
        <ele>100.789879</ele>
        <time>2021-10-27T13:04:17Z</time>
      </trkpt>
      <trkpt lat="43.57818" lon="3.73193">
        <ele>101.930992</ele>
        <time>2021-10-27T13:04:27Z</time>
      </trkpt>
      <trkpt lat="43.57824" lon="3.73224">
        <ele>103.015289</ele>
        <time>2021-10-27T13:04:37Z</time>
      </trkpt>
      <trkpt lat="43.57841" lon="3.73249">
        <ele>103.981194</ele>
        <time>2021-10-27T13:04:47Z</time>
      </trkpt>
      <trkpt lat="43.57858" lon="3.73273">
        <ele>104.700279</ele>
        <time>2021-10-27T13:04:57Z</time>
      </trkpt>
      <trkpt lat="43.57871" lon="3.73305">
        <ele>104.623695</ele>
        <time>2021-10-27T13:05:07Z</time>
      </trkpt>
      <trkpt lat="43.57882" lon="3.73343">
        <ele>103.93087</ele>
        <time>2021-10-27T13:05:17Z</time>
      </trkpt>
      <trkpt lat="43.57888" lon="3.73381">
        <ele>102.995583</ele>
        <time>2021-10-27T13:05:27Z</time>
      </trkpt>
      <trkpt lat="43.57908" lon="3.73424">
        <ele>102.021912</ele>
        <time>2021-10-27T13:05:37Z</time>
      </trkpt>
      <trkpt lat="43.5793" lon="3.73464">
        <ele>100.66732</ele>
        <time>2021-10-27T13:05:47Z</time>
      </trkpt>
      <trkpt lat="43.57958" lon="3.73504">
        <ele>99.490074</ele>
        <time>2021-10-27T13:05:57Z</time>
      </trkpt>
      <trkpt lat="43.57979" lon="3.73528">
        <ele>98.143471</ele>
        <time>2021-10-27T13:06:07Z</time>
      </trkpt>
      <trkpt lat="43.57996" lon="3.73562">
        <ele>96.89856</ele>
        <time>2021-10-27T13:06:17Z</time>
      </trkpt>
      <trkpt lat="43.58006" lon="3.73607">
        <ele>93.528992</ele>
        <time>2021-10-27T13:06:27Z</time>
      </trkpt>
      <trkpt lat="43.58021" lon="3.7365">
        <ele>89.874451</ele>
        <time>2021-10-27T13:06:37Z</time>
      </trkpt>
      <trkpt lat="43.58027" lon="3.7369">
        <ele>86.3946</ele>
        <time>2021-10-27T13:06:47Z</time>
      </trkpt>
      <trkpt lat="43.58044" lon="3.73734">
        <ele>82.255867</ele>
        <time>2021-10-27T13:06:57Z</time>
      </trkpt>
      <trkpt lat="43.5806" lon="3.73771">
        <ele>78.253746</ele>
        <time>2021-10-27T13:07:07Z</time>
      </trkpt>
      <trkpt lat="43.58083" lon="3.73794">
        <ele>74.956757</ele>
        <time>2021-10-27T13:07:37Z</time>
      </trkpt>
      <trkpt lat="43.58103" lon="3.73811">
        <ele>74.049126</ele>
        <time>2021-10-27T13:07:57Z</time>
      </trkpt>
      <trkpt lat="43.58122" lon="3.73826">
        <ele>73.719223</ele>
        <time>2021-10-27T13:08:07Z</time>
      </trkpt>
      <trkpt lat="43.58141" lon="3.73839">
        <ele>74.371223</ele>
        <time>2021-10-27T13:08:17Z</time>
      </trkpt>
      <trkpt lat="43.58156" lon="3.73851">
        <ele>74.966255</ele>
        <time>2021-10-27T13:08:27Z</time>
      </trkpt>
      <trkpt lat="43.5817" lon="3.73863">
        <ele>75.561028</ele>
        <time>2021-10-27T13:08:37Z</time>
      </trkpt>
      <trkpt lat="43.58186" lon="3.73874">
        <ele>76.295753</ele>
        <time>2021-10-27T13:08:47Z</time>
      </trkpt>
      <trkpt lat="43.58197" lon="3.73892">
        <ele>77.211967</ele>
        <time>2021-10-27T13:08:57Z</time>
      </trkpt>
      <trkpt lat="43.58207" lon="3.7391">
        <ele>79.215698</ele>
        <time>2021-10-27T13:09:07Z</time>
      </trkpt>
      <trkpt lat="43.58217" lon="3.73926">
        <ele>80.992058</ele>
        <time>2021-10-27T13:09:17Z</time>
      </trkpt>
      <trkpt lat="43.58226" lon="3.73943">
        <ele>82.858894</ele>
        <time>2021-10-27T13:09:27Z</time>
      </trkpt>
      <trkpt lat="43.58231" lon="3.73961">
        <ele>84.668983</ele>
        <time>2021-10-27T13:09:37Z</time>
      </trkpt>
      <trkpt lat="43.58238" lon="3.73977">
        <ele>86.502968</ele>
        <time>2021-10-27T13:09:47Z</time>
      </trkpt>
      <trkpt lat="43.58239" lon="3.73998">
        <ele>88.841072</ele>
        <time>2021-10-27T13:10:07Z</time>
      </trkpt>
      <trkpt lat="43.5824" lon="3.74007">
        <ele>89.572365</ele>
        <time>2021-10-27T13:10:27Z</time>
      </trkpt>
      <trkpt lat="43.58243" lon="3.74018">
        <ele>90.634621</ele>
        <time>2021-10-27T13:10:37Z</time>
      </trkpt>
      <trkpt lat="43.58245" lon="3.74029">
        <ele>91.389404</ele>
        <time>2021-10-27T13:10:47Z</time>
      </trkpt>
      <trkpt lat="43.58243" lon="3.74041">
        <ele>92.362305</ele>
        <time>2021-10-27T13:10:57Z</time>
      </trkpt>
      <trkpt lat="43.58258" lon="3.74064">
        <ele>93.991539</ele>
        <time>2021-10-27T13:11:17Z</time>
      </trkpt>
      <trkpt lat="43.58275" lon="3.74077">
        <ele>94.919678</ele>
        <time>2021-10-27T13:11:37Z</time>
      </trkpt>
      <trkpt lat="43.58295" lon="3.74094">
        <ele>96.033989</ele>
        <time>2021-10-27T13:11:47Z</time>
      </trkpt>
      <trkpt lat="43.58298" lon="3.74111">
        <ele>96.498024</ele>
        <time>2021-10-27T13:11:57Z</time>
      </trkpt>
      <trkpt lat="43.58319" lon="3.74126">
        <ele>96.713402</ele>
        <time>2021-10-27T13:12:07Z</time>
      </trkpt>
      <trkpt lat="43.58313" lon="3.74147">
        <ele>96.898399</ele>
        <time>2021-10-27T13:12:17Z</time>
      </trkpt>
      <trkpt lat="43.58302" lon="3.74177">
        <ele>96.893669</ele>
        <time>2021-10-27T13:12:27Z</time>
      </trkpt>
      <trkpt lat="43.58297" lon="3.74189">
        <ele>96.448891</ele>
        <time>2021-10-27T13:16:57Z</time>
      </trkpt>
      <trkpt lat="43.58303" lon="3.74195">
        <ele>96.463951</ele>
        <time>2021-10-27T13:17:17Z</time>
      </trkpt>
      <trkpt lat="43.58333" lon="3.74223">
        <ele>96.209801</ele>
        <time>2021-10-27T13:17:27Z</time>
      </trkpt>
      <trkpt lat="43.58369" lon="3.7426">
        <ele>95.707886</ele>
        <time>2021-10-27T13:17:37Z</time>
      </trkpt>
      <trkpt lat="43.58396" lon="3.74257">
        <ele>95.108673</ele>
        <time>2021-10-27T13:18:07Z</time>
      </trkpt>
      <trkpt lat="43.58403" lon="3.74228">
        <ele>95.138649</ele>
        <time>2021-10-27T13:18:27Z</time>
      </trkpt>
      <trkpt lat="43.58414" lon="3.74183">
        <ele>95.366058</ele>
        <time>2021-10-27T13:18:37Z</time>
      </trkpt>
      <trkpt lat="43.58442" lon="3.74137">
        <ele>96.460136</ele>
        <time>2021-10-27T13:18:47Z</time>
      </trkpt>
      <trkpt lat="43.58454" lon="3.74165">
        <ele>96.057495</ele>
        <time>2021-10-27T13:18:57Z</time>
      </trkpt>
      <trkpt lat="43.58459" lon="3.74203">
        <ele>95.202148</ele>
        <time>2021-10-27T13:19:07Z</time>
      </trkpt>
      <trkpt lat="43.5847" lon="3.74232">
        <ele>94.353035</ele>
        <time>2021-10-27T13:19:17Z</time>
      </trkpt>
      <trkpt lat="43.58479" lon="3.74249">
        <ele>93.875008</ele>
        <time>2021-10-27T13:19:27Z</time>
      </trkpt>
      <trkpt lat="43.58483" lon="3.7427">
        <ele>93.500153</ele>
        <time>2021-10-27T13:19:37Z</time>
      </trkpt>
      <trkpt lat="43.58488" lon="3.74293">
        <ele>93.148224</ele>
        <time>2021-10-27T13:19:47Z</time>
      </trkpt>
      <trkpt lat="43.58491" lon="3.74333">
        <ele>92.754005</ele>
        <time>2021-10-27T13:19:57Z</time>
      </trkpt>
      <trkpt lat="43.58513" lon="3.74352">
        <ele>92.402283</ele>
        <time>2021-10-27T13:20:07Z</time>
      </trkpt>
      <trkpt lat="43.58536" lon="3.74346">
        <ele>92.659203</ele>
        <time>2021-10-27T13:20:17Z</time>
      </trkpt>
      <trkpt lat="43.58563" lon="3.74347">
        <ele>92.967773</ele>
        <time>2021-10-27T13:20:27Z</time>
      </trkpt>
      <trkpt lat="43.58601" lon="3.74351">
        <ele>93.762695</ele>
        <time>2021-10-27T13:20:37Z</time>
      </trkpt>
      <trkpt lat="43.58619" lon="3.74329">
        <ele>94.847984</ele>
        <time>2021-10-27T13:20:47Z</time>
      </trkpt>
      <trkpt lat="43.58625" lon="3.74304">
        <ele>95.106773</ele>
        <time>2021-10-27T13:20:57Z</time>
      </trkpt>
      <trkpt lat="43.58644" lon="3.74293">
        <ele>95.62793</ele>
        <time>2021-10-27T13:21:07Z</time>
      </trkpt>
      <trkpt lat="43.58688" lon="3.74301">
        <ele>97.349937</ele>
        <time>2021-10-27T13:21:17Z</time>
      </trkpt>
      <trkpt lat="43.58694" lon="3.74334">
        <ele>99.622719</ele>
        <time>2021-10-27T13:21:27Z</time>
      </trkpt>
      <trkpt lat="43.58668" lon="3.74383">
        <ele>98.547852</ele>
        <time>2021-10-27T13:21:37Z</time>
      </trkpt>
      <trkpt lat="43.58648" lon="3.74429">
        <ele>95.613091</ele>
        <time>2021-10-27T13:21:47Z</time>
      </trkpt>
      <trkpt lat="43.58647" lon="3.74494">
        <ele>92.676598</ele>
        <time>2021-10-27T13:21:57Z</time>
      </trkpt>
      <trkpt lat="43.58658" lon="3.7458">
        <ele>92.681892</ele>
        <time>2021-10-27T13:22:07Z</time>
      </trkpt>
      <trkpt lat="43.58643" lon="3.74643">
        <ele>96.046913</ele>
        <time>2021-10-27T13:22:17Z</time>
      </trkpt>
      <trkpt lat="43.58615" lon="3.74699">
        <ele>96.317711</ele>
        <time>2021-10-27T13:22:27Z</time>
      </trkpt>
      <trkpt lat="43.58632" lon="3.74736">
        <ele>95.889793</ele>
        <time>2021-10-27T13:22:37Z</time>
      </trkpt>
      <trkpt lat="43.58669" lon="3.74762">
        <ele>96.580017</ele>
        <time>2021-10-27T13:22:47Z</time>
      </trkpt>
      <trkpt lat="43.58703" lon="3.7476">
        <ele>97.065895</ele>
        <time>2021-10-27T13:22:57Z</time>
      </trkpt>
      <trkpt lat="43.58737" lon="3.74769">
        <ele>97.501549</ele>
        <time>2021-10-27T13:23:07Z</time>
      </trkpt>
      <trkpt lat="43.5877" lon="3.74762">
        <ele>97.966431</ele>
        <time>2021-10-27T13:23:17Z</time>
      </trkpt>
      <trkpt lat="43.58799" lon="3.74743">
        <ele>98.333672</ele>
        <time>2021-10-27T13:23:27Z</time>
      </trkpt>
      <trkpt lat="43.58831" lon="3.74731">
        <ele>99.355949</ele>
        <time>2021-10-27T13:23:37Z</time>
      </trkpt>
      <trkpt lat="43.58868" lon="3.74726">
        <ele>100.10482</ele>
        <time>2021-10-27T13:23:47Z</time>
      </trkpt>
      <trkpt lat="43.58894" lon="3.74737">
        <ele>100.68026</ele>
        <time>2021-10-27T13:23:57Z</time>
      </trkpt>
      <trkpt lat="43.58911" lon="3.74717">
        <ele>100.829285</ele>
        <time>2021-10-27T13:24:07Z</time>
      </trkpt>
      <trkpt lat="43.58945" lon="3.74715">
        <ele>101.750389</ele>
        <time>2021-10-27T13:24:17Z</time>
      </trkpt>
      <trkpt lat="43.58981" lon="3.74715">
        <ele>102.23687</ele>
        <time>2021-10-27T13:24:27Z</time>
      </trkpt>
      <trkpt lat="43.5902" lon="3.74734">
        <ele>102.64444</ele>
        <time>2021-10-27T13:24:37Z</time>
      </trkpt>
      <trkpt lat="43.59053" lon="3.7474">
        <ele>101.722084</ele>
        <time>2021-10-27T13:24:47Z</time>
      </trkpt>
      <trkpt lat="43.59063" lon="3.74732">
        <ele>101.737793</ele>
        <time>2021-10-27T13:24:57Z</time>
      </trkpt>
      <trkpt lat="43.59083" lon="3.747">
        <ele>103.879883</ele>
        <time>2021-10-27T13:25:07Z</time>
      </trkpt>
      <trkpt lat="43.59142" lon="3.74679">
        <ele>104.656075</ele>
        <time>2021-10-27T13:25:17Z</time>
      </trkpt>
      <trkpt lat="43.59186" lon="3.74633">
        <ele>100.878014</ele>
        <time>2021-10-27T13:25:27Z</time>
      </trkpt>
      <trkpt lat="43.59205" lon="3.74688">
        <ele>97.275261</ele>
        <time>2021-10-27T13:25:37Z</time>
      </trkpt>
      <trkpt lat="43.59213" lon="3.74742">
        <ele>94.201965</ele>
        <time>2021-10-27T13:25:47Z</time>
      </trkpt>
      <trkpt lat="43.59197" lon="3.74779">
        <ele>93.511269</ele>
        <time>2021-10-27T13:25:57Z</time>
      </trkpt>
      <trkpt lat="43.59187" lon="3.74815">
        <ele>93.614601</ele>
        <time>2021-10-27T13:26:07Z</time>
      </trkpt>
      <trkpt lat="43.59184" lon="3.74856">
        <ele>92.961517</ele>
        <time>2021-10-27T13:26:17Z</time>
      </trkpt>
      <trkpt lat="43.59192" lon="3.74889">
        <ele>91.918495</ele>
        <time>2021-10-27T13:26:27Z</time>
      </trkpt>
      <trkpt lat="43.59196" lon="3.74921">
        <ele>91.287178</ele>
        <time>2021-10-27T13:26:37Z</time>
      </trkpt>
      <trkpt lat="43.59193" lon="3.74966">
        <ele>91.275856</ele>
        <time>2021-10-27T13:26:47Z</time>
      </trkpt>
      <trkpt lat="43.592" lon="3.75019">
        <ele>91.572853</ele>
        <time>2021-10-27T13:26:57Z</time>
      </trkpt>
      <trkpt lat="43.5921" lon="3.75083">
        <ele>92.647125</ele>
        <time>2021-10-27T13:27:07Z</time>
      </trkpt>
      <trkpt lat="43.59183" lon="3.75106">
        <ele>92.781189</ele>
        <time>2021-10-27T13:27:17Z</time>
      </trkpt>
      <trkpt lat="43.59143" lon="3.75127">
        <ele>90.811867</ele>
        <time>2021-10-27T13:27:27Z</time>
      </trkpt>
      <trkpt lat="43.59106" lon="3.75152">
        <ele>89.037437</ele>
        <time>2021-10-27T13:27:37Z</time>
      </trkpt>
      <trkpt lat="43.59074" lon="3.75188">
        <ele>87.374153</ele>
        <time>2021-10-27T13:27:47Z</time>
      </trkpt>
      <trkpt lat="43.59043" lon="3.75229">
        <ele>88.351784</ele>
        <time>2021-10-27T13:27:57Z</time>
      </trkpt>
      <trkpt lat="43.59009" lon="3.75273">
        <ele>90.421425</ele>
        <time>2021-10-27T13:28:07Z</time>
      </trkpt>
      <trkpt lat="43.58968" lon="3.75329">
        <ele>90.942818</ele>
        <time>2021-10-27T13:28:17Z</time>
      </trkpt>
      <trkpt lat="43.58946" lon="3.75386">
        <ele>89.038269</ele>
        <time>2021-10-27T13:28:27Z</time>
      </trkpt>
      <trkpt lat="43.58991" lon="3.75417">
        <ele>90.234924</ele>
        <time>2021-10-27T13:28:37Z</time>
      </trkpt>
      <trkpt lat="43.5902" lon="3.7546">
        <ele>92.262154</ele>
        <time>2021-10-27T13:28:47Z</time>
      </trkpt>
      <trkpt lat="43.59047" lon="3.75503">
        <ele>93.320465</ele>
        <time>2021-10-27T13:28:57Z</time>
      </trkpt>
      <trkpt lat="43.59068" lon="3.75545">
        <ele>94.710213</ele>
        <time>2021-10-27T13:29:07Z</time>
      </trkpt>
      <trkpt lat="43.59087" lon="3.75587">
        <ele>96.208092</ele>
        <time>2021-10-27T13:29:17Z</time>
      </trkpt>
      <trkpt lat="43.59113" lon="3.75632">
        <ele>97.606163</ele>
        <time>2021-10-27T13:29:27Z</time>
      </trkpt>
      <trkpt lat="43.59141" lon="3.75677">
        <ele>96.847771</ele>
        <time>2021-10-27T13:29:37Z</time>
      </trkpt>
      <trkpt lat="43.59134" lon="3.7574">
        <ele>95.382484</ele>
        <time>2021-10-27T13:29:47Z</time>
      </trkpt>
      <trkpt lat="43.59103" lon="3.75796">
        <ele>93.745277</ele>
        <time>2021-10-27T13:29:57Z</time>
      </trkpt>
      <trkpt lat="43.59067" lon="3.75854">
        <ele>91.701576</ele>
        <time>2021-10-27T13:30:07Z</time>
      </trkpt>
      <trkpt lat="43.59034" lon="3.75917">
        <ele>87.699219</ele>
        <time>2021-10-27T13:30:17Z</time>
      </trkpt>
      <trkpt lat="43.59044" lon="3.75971">
        <ele>83.918129</ele>
        <time>2021-10-27T13:30:27Z</time>
      </trkpt>
      <trkpt lat="43.59032" lon="3.76029">
        <ele>81.536217</ele>
        <time>2021-10-27T13:30:37Z</time>
      </trkpt>
      <trkpt lat="43.59018" lon="3.7609">
        <ele>79.357384</ele>
        <time>2021-10-27T13:30:47Z</time>
      </trkpt>
      <trkpt lat="43.59035" lon="3.76138">
        <ele>78.855072</ele>
        <time>2021-10-27T13:30:57Z</time>
      </trkpt>
      <trkpt lat="43.59045" lon="3.7618">
        <ele>78.770264</ele>
        <time>2021-10-27T13:31:07Z</time>
      </trkpt>
      <trkpt lat="43.59043" lon="3.76228">
        <ele>78.184486</ele>
        <time>2021-10-27T13:31:17Z</time>
      </trkpt>
      <trkpt lat="43.59065" lon="3.76274">
        <ele>77.463707</ele>
        <time>2021-10-27T13:31:27Z</time>
      </trkpt>
      <trkpt lat="43.59087" lon="3.76326">
        <ele>76.328941</ele>
        <time>2021-10-27T13:31:37Z</time>
      </trkpt>
      <trkpt lat="43.591" lon="3.76362">
        <ele>73.362762</ele>
        <time>2021-10-27T13:31:47Z</time>
      </trkpt>
      <trkpt lat="43.5911" lon="3.76415">
        <ele>71.139732</ele>
        <time>2021-10-27T13:31:57Z</time>
      </trkpt>
      <trkpt lat="43.59092" lon="3.76482">
        <ele>67.622734</ele>
        <time>2021-10-27T13:32:07Z</time>
      </trkpt>
      <trkpt lat="43.59055" lon="3.76554">
        <ele>62.481247</ele>
        <time>2021-10-27T13:32:17Z</time>
      </trkpt>
      <trkpt lat="43.58999" lon="3.76601">
        <ele>57.064209</ele>
        <time>2021-10-27T13:32:27Z</time>
      </trkpt>
      <trkpt lat="43.58971" lon="3.76622">
        <ele>53.27124</ele>
        <time>2021-10-27T13:32:37Z</time>
      </trkpt>
      <trkpt lat="43.59006" lon="3.76654">
        <ele>52.631084</ele>
        <time>2021-10-27T13:32:47Z</time>
      </trkpt>
      <trkpt lat="43.59043" lon="3.76686">
        <ele>52.801147</ele>
        <time>2021-10-27T13:32:57Z</time>
      </trkpt>
      <trkpt lat="43.59072" lon="3.76723">
        <ele>52.155437</ele>
        <time>2021-10-27T13:33:07Z</time>
      </trkpt>
      <trkpt lat="43.59103" lon="3.76734">
        <ele>52.042805</ele>
        <time>2021-10-27T13:33:17Z</time>
      </trkpt>
      <trkpt lat="43.5913" lon="3.76747">
        <ele>52.934643</ele>
        <time>2021-10-27T13:33:27Z</time>
      </trkpt>
      <trkpt lat="43.59149" lon="3.76764">
        <ele>53.98595</ele>
        <time>2021-10-27T13:33:37Z</time>
      </trkpt>
      <trkpt lat="43.59165" lon="3.76784">
        <ele>54.934528</ele>
        <time>2021-10-27T13:33:47Z</time>
      </trkpt>
      <trkpt lat="43.59179" lon="3.76806">
        <ele>55.755863</ele>
        <time>2021-10-27T13:33:57Z</time>
      </trkpt>
      <trkpt lat="43.59188" lon="3.76832">
        <ele>56.499989</ele>
        <time>2021-10-27T13:34:07Z</time>
      </trkpt>
      <trkpt lat="43.59202" lon="3.76862">
        <ele>57.582031</ele>
        <time>2021-10-27T13:34:17Z</time>
      </trkpt>
      <trkpt lat="43.59224" lon="3.76877">
        <ele>59.549591</ele>
        <time>2021-10-27T13:34:27Z</time>
      </trkpt>
      <trkpt lat="43.59251" lon="3.76893">
        <ele>61.843369</ele>
        <time>2021-10-27T13:34:37Z</time>
      </trkpt>
      <trkpt lat="43.59277" lon="3.76907">
        <ele>63.453556</ele>
        <time>2021-10-27T13:34:47Z</time>
      </trkpt>
      <trkpt lat="43.59306" lon="3.76918">
        <ele>64.924843</ele>
        <time>2021-10-27T13:34:57Z</time>
      </trkpt>
      <trkpt lat="43.5933" lon="3.76937">
        <ele>65.978065</ele>
        <time>2021-10-27T13:35:07Z</time>
      </trkpt>
      <trkpt lat="43.59353" lon="3.76962">
        <ele>66.070541</ele>
        <time>2021-10-27T13:35:17Z</time>
      </trkpt>
      <trkpt lat="43.59384" lon="3.76984">
        <ele>65.813759</ele>
        <time>2021-10-27T13:35:27Z</time>
      </trkpt>
      <trkpt lat="43.59418" lon="3.77001">
        <ele>68.862465</ele>
        <time>2021-10-27T13:35:37Z</time>
      </trkpt>
      <trkpt lat="43.59454" lon="3.77022">
        <ele>73.044762</ele>
        <time>2021-10-27T13:35:47Z</time>
      </trkpt>
      <trkpt lat="43.59499" lon="3.77052">
        <ele>73.987953</ele>
        <time>2021-10-27T13:35:57Z</time>
      </trkpt>
      <trkpt lat="43.59549" lon="3.77073">
        <ele>73.003212</ele>
        <time>2021-10-27T13:36:07Z</time>
      </trkpt>
      <trkpt lat="43.59602" lon="3.77101">
        <ele>72.50695</ele>
        <time>2021-10-27T13:36:17Z</time>
      </trkpt>
      <trkpt lat="43.59655" lon="3.77131">
        <ele>71.75602</ele>
        <time>2021-10-27T13:36:27Z</time>
      </trkpt>
      <trkpt lat="43.59708" lon="3.77161">
        <ele>71.054573</ele>
        <time>2021-10-27T13:36:37Z</time>
      </trkpt>
      <trkpt lat="43.59704" lon="3.772">
        <ele>69.922005</ele>
        <time>2021-10-27T13:36:47Z</time>
      </trkpt>
      <trkpt lat="43.59661" lon="3.77237">
        <ele>68.445984</ele>
        <time>2021-10-27T13:36:57Z</time>
      </trkpt>
      <trkpt lat="43.59612" lon="3.77272">
        <ele>66.733238</ele>
        <time>2021-10-27T13:37:07Z</time>
      </trkpt>
      <trkpt lat="43.59568" lon="3.77312">
        <ele>65.641762</ele>
        <time>2021-10-27T13:37:17Z</time>
      </trkpt>
      <trkpt lat="43.59524" lon="3.77348">
        <ele>63.978271</ele>
        <time>2021-10-27T13:37:27Z</time>
      </trkpt>
      <trkpt lat="43.59485" lon="3.77386">
        <ele>62.58968</ele>
        <time>2021-10-27T13:37:37Z</time>
      </trkpt>
      <trkpt lat="43.59462" lon="3.77445">
        <ele>61.566326</ele>
        <time>2021-10-27T13:37:47Z</time>
      </trkpt>
      <trkpt lat="43.59453" lon="3.7751">
        <ele>60.700031</ele>
        <time>2021-10-27T13:37:57Z</time>
      </trkpt>
      <trkpt lat="43.59418" lon="3.77552">
        <ele>58.948292</ele>
        <time>2021-10-27T13:38:07Z</time>
      </trkpt>
      <trkpt lat="43.59401" lon="3.77593">
        <ele>54.270061</ele>
        <time>2021-10-27T13:38:17Z</time>
      </trkpt>
      <trkpt lat="43.59412" lon="3.77642">
        <ele>53.530762</ele>
        <time>2021-10-27T13:38:27Z</time>
      </trkpt>
      <trkpt lat="43.59426" lon="3.77687">
        <ele>54.644909</ele>
        <time>2021-10-27T13:38:37Z</time>
      </trkpt>
      <trkpt lat="43.59405" lon="3.77732">
        <ele>54.738785</ele>
        <time>2021-10-27T13:38:47Z</time>
      </trkpt>
      <trkpt lat="43.5937" lon="3.7778">
        <ele>50.833004</ele>
        <time>2021-10-27T13:38:57Z</time>
      </trkpt>
      <trkpt lat="43.59346" lon="3.77841">
        <ele>49.995441</ele>
        <time>2021-10-27T13:39:07Z</time>
      </trkpt>
      <trkpt lat="43.59338" lon="3.77912">
        <ele>50.097549</ele>
        <time>2021-10-27T13:39:17Z</time>
      </trkpt>
      <trkpt lat="43.59331" lon="3.77984">
        <ele>50.220562</ele>
        <time>2021-10-27T13:39:27Z</time>
      </trkpt>
      <trkpt lat="43.59335" lon="3.78059">
        <ele>49.229527</ele>
        <time>2021-10-27T13:39:37Z</time>
      </trkpt>
      <trkpt lat="43.59329" lon="3.78134">
        <ele>47.606617</ele>
        <time>2021-10-27T13:39:47Z</time>
      </trkpt>
      <trkpt lat="43.593" lon="3.78171">
        <ele>47.067493</ele>
        <time>2021-10-27T13:39:57Z</time>
      </trkpt>
      <trkpt lat="43.59267" lon="3.78192">
        <ele>49.365314</ele>
        <time>2021-10-27T13:40:07Z</time>
      </trkpt>
      <trkpt lat="43.59258" lon="3.78224">
        <ele>50.070415</ele>
        <time>2021-10-27T13:40:17Z</time>
      </trkpt>
      <trkpt lat="43.59254" lon="3.7825">
        <ele>50.018658</ele>
        <time>2021-10-27T13:40:37Z</time>
      </trkpt>
      <trkpt lat="43.59247" lon="3.78325">
        <ele>48.819763</ele>
        <time>2021-10-27T13:40:57Z</time>
      </trkpt>
      <trkpt lat="43.59237" lon="3.78399">
        <ele>46.262817</ele>
        <time>2021-10-27T13:41:07Z</time>
      </trkpt>
      <trkpt lat="43.59226" lon="3.78469">
        <ele>45.496235</ele>
        <time>2021-10-27T13:41:17Z</time>
      </trkpt>
      <trkpt lat="43.5922" lon="3.78541">
        <ele>46.240803</ele>
        <time>2021-10-27T13:41:27Z</time>
      </trkpt>
      <trkpt lat="43.59201" lon="3.78611">
        <ele>47.969879</ele>
        <time>2021-10-27T13:41:37Z</time>
      </trkpt>
      <trkpt lat="43.5918" lon="3.78675">
        <ele>49.96368</ele>
        <time>2021-10-27T13:41:47Z</time>
      </trkpt>
      <trkpt lat="43.59165" lon="3.78743">
        <ele>49.642044</ele>
        <time>2021-10-27T13:41:57Z</time>
      </trkpt>
      <trkpt lat="43.5915" lon="3.78814">
        <ele>48.633289</ele>
        <time>2021-10-27T13:42:07Z</time>
      </trkpt>
      <trkpt lat="43.59129" lon="3.78877">
        <ele>47.303604</ele>
        <time>2021-10-27T13:42:17Z</time>
      </trkpt>
      <trkpt lat="43.59138" lon="3.78932">
        <ele>46.233723</ele>
        <time>2021-10-27T13:42:27Z</time>
      </trkpt>
      <trkpt lat="43.59166" lon="3.7898">
        <ele>45.831692</ele>
        <time>2021-10-27T13:42:37Z</time>
      </trkpt>
      <trkpt lat="43.59185" lon="3.79028">
        <ele>44.781811</ele>
        <time>2021-10-27T13:42:47Z</time>
      </trkpt>
      <trkpt lat="43.59172" lon="3.7908">
        <ele>43.487885</ele>
        <time>2021-10-27T13:42:57Z</time>
      </trkpt>
      <trkpt lat="43.59163" lon="3.79138">
        <ele>42.778423</ele>
        <time>2021-10-27T13:43:07Z</time>
      </trkpt>
      <trkpt lat="43.59159" lon="3.79222">
        <ele>41.157948</ele>
        <time>2021-10-27T13:43:17Z</time>
      </trkpt>
      <trkpt lat="43.59129" lon="3.79303">
        <ele>40.21014</ele>
        <time>2021-10-27T13:43:27Z</time>
      </trkpt>
      <trkpt lat="43.59113" lon="3.79364">
        <ele>41.202969</ele>
        <time>2021-10-27T13:43:37Z</time>
      </trkpt>
      <trkpt lat="43.591" lon="3.79434">
        <ele>39.994141</ele>
        <time>2021-10-27T13:43:47Z</time>
      </trkpt>
      <trkpt lat="43.59081" lon="3.79494">
        <ele>38.689705</ele>
        <time>2021-10-27T13:43:57Z</time>
      </trkpt>
      <trkpt lat="43.59059" lon="3.79548">
        <ele>37.433876</ele>
        <time>2021-10-27T13:44:07Z</time>
      </trkpt>
      <trkpt lat="43.59029" lon="3.79593">
        <ele>36.355957</ele>
        <time>2021-10-27T13:44:17Z</time>
      </trkpt>
      <trkpt lat="43.58994" lon="3.79628">
        <ele>36.456951</ele>
        <time>2021-10-27T13:44:27Z</time>
      </trkpt>
      <trkpt lat="43.58975" lon="3.79668">
        <ele>36.972736</ele>
        <time>2021-10-27T13:44:37Z</time>
      </trkpt>
      <trkpt lat="43.5899" lon="3.79701">
        <ele>37.553791</ele>
        <time>2021-10-27T13:44:47Z</time>
      </trkpt>
      <trkpt lat="43.58964" lon="3.79728">
        <ele>38.016659</ele>
        <time>2021-10-27T13:44:57Z</time>
      </trkpt>
      <trkpt lat="43.58928" lon="3.79761">
        <ele>38.150925</ele>
        <time>2021-10-27T13:45:07Z</time>
      </trkpt>
      <trkpt lat="43.58895" lon="3.79803">
        <ele>38.211426</ele>
        <time>2021-10-27T13:45:17Z</time>
      </trkpt>
      <trkpt lat="43.58901" lon="3.79837">
        <ele>38.460941</ele>
        <time>2021-10-27T13:45:27Z</time>
      </trkpt>
      <trkpt lat="43.58918" lon="3.79872">
        <ele>39.154716</ele>
        <time>2021-10-27T13:45:37Z</time>
      </trkpt>
      <trkpt lat="43.58937" lon="3.79911">
        <ele>39.730667</ele>
        <time>2021-10-27T13:45:47Z</time>
      </trkpt>
      <trkpt lat="43.58956" lon="3.7995">
        <ele>40.485081</ele>
        <time>2021-10-27T13:45:57Z</time>
      </trkpt>
      <trkpt lat="43.58974" lon="3.79988">
        <ele>40.949543</ele>
        <time>2021-10-27T13:46:07Z</time>
      </trkpt>
      <trkpt lat="43.58996" lon="3.80032">
        <ele>41.755405</ele>
        <time>2021-10-27T13:46:17Z</time>
      </trkpt>
      <trkpt lat="43.59019" lon="3.80074">
        <ele>42.595936</ele>
        <time>2021-10-27T13:46:27Z</time>
      </trkpt>
      <trkpt lat="43.59024" lon="3.8011">
        <ele>42.876953</ele>
        <time>2021-10-27T13:46:37Z</time>
      </trkpt>
      <trkpt lat="43.59041" lon="3.80149">
        <ele>43.003082</ele>
        <time>2021-10-27T13:46:47Z</time>
      </trkpt>
      <trkpt lat="43.59058" lon="3.80187">
        <ele>43.335617</ele>
        <time>2021-10-27T13:46:57Z</time>
      </trkpt>
      <trkpt lat="43.59077" lon="3.80232">
        <ele>43.518635</ele>
        <time>2021-10-27T13:47:07Z</time>
      </trkpt>
      <trkpt lat="43.5909" lon="3.80283">
        <ele>43.7159</ele>
        <time>2021-10-27T13:47:17Z</time>
      </trkpt>
      <trkpt lat="43.59097" lon="3.80339">
        <ele>43.341309</ele>
        <time>2021-10-27T13:47:27Z</time>
      </trkpt>
      <trkpt lat="43.59098" lon="3.80388">
        <ele>42.587666</ele>
        <time>2021-10-27T13:47:37Z</time>
      </trkpt>
      <trkpt lat="43.59094" lon="3.80437">
        <ele>41.860691</ele>
        <time>2021-10-27T13:47:47Z</time>
      </trkpt>
      <trkpt lat="43.59083" lon="3.80494">
        <ele>41.177013</ele>
        <time>2021-10-27T13:47:57Z</time>
      </trkpt>
      <trkpt lat="43.5906" lon="3.8055">
        <ele>40.566669</ele>
        <time>2021-10-27T13:48:07Z</time>
      </trkpt>
      <trkpt lat="43.59021" lon="3.80613">
        <ele>40.366283</ele>
        <time>2021-10-27T13:48:17Z</time>
      </trkpt>
      <trkpt lat="43.58971" lon="3.80677">
        <ele>39.783489</ele>
        <time>2021-10-27T13:48:27Z</time>
      </trkpt>
      <trkpt lat="43.58935" lon="3.80729">
        <ele>39.276108</ele>
        <time>2021-10-27T13:48:37Z</time>
      </trkpt>
      <trkpt lat="43.58901" lon="3.8078">
        <ele>37.782879</ele>
        <time>2021-10-27T13:48:47Z</time>
      </trkpt>
      <trkpt lat="43.58859" lon="3.80834">
        <ele>36.101109</ele>
        <time>2021-10-27T13:48:57Z</time>
      </trkpt>
      <trkpt lat="43.5882" lon="3.80892">
        <ele>33.223713</ele>
        <time>2021-10-27T13:49:07Z</time>
      </trkpt>
      <trkpt lat="43.58799" lon="3.8096">
        <ele>30.90332</ele>
        <time>2021-10-27T13:49:17Z</time>
      </trkpt>
      <trkpt lat="43.5882" lon="3.81028">
        <ele>28.863443</ele>
        <time>2021-10-27T13:49:27Z</time>
      </trkpt>
      <trkpt lat="43.58852" lon="3.81088">
        <ele>27.532471</ele>
        <time>2021-10-27T13:49:37Z</time>
      </trkpt>
      <trkpt lat="43.58894" lon="3.81128">
        <ele>27.389486</ele>
        <time>2021-10-27T13:49:47Z</time>
      </trkpt>
      <trkpt lat="43.58934" lon="3.81166">
        <ele>27.693521</ele>
        <time>2021-10-27T13:49:57Z</time>
      </trkpt>
      <trkpt lat="43.58976" lon="3.81204">
        <ele>28.33374</ele>
        <time>2021-10-27T13:50:07Z</time>
      </trkpt>
      <trkpt lat="43.59015" lon="3.81243">
        <ele>28.909912</ele>
        <time>2021-10-27T13:50:17Z</time>
      </trkpt>
      <trkpt lat="43.5905" lon="3.81287">
        <ele>29.394857</ele>
        <time>2021-10-27T13:50:27Z</time>
      </trkpt>
      <trkpt lat="43.59082" lon="3.8134">
        <ele>29.241211</ele>
        <time>2021-10-27T13:50:37Z</time>
      </trkpt>
      <trkpt lat="43.59109" lon="3.81401">
        <ele>28.85433</ele>
        <time>2021-10-27T13:50:47Z</time>
      </trkpt>
      <trkpt lat="43.59129" lon="3.81466">
        <ele>27.897135</ele>
        <time>2021-10-27T13:50:57Z</time>
      </trkpt>
      <trkpt lat="43.59145" lon="3.81523">
        <ele>27.499338</ele>
        <time>2021-10-27T13:51:07Z</time>
      </trkpt>
      <trkpt lat="43.59156" lon="3.81574">
        <ele>27.75489</ele>
        <time>2021-10-27T13:51:17Z</time>
      </trkpt>
      <trkpt lat="43.59169" lon="3.81629">
        <ele>28</ele>
        <time>2021-10-27T13:51:27Z</time>
      </trkpt>
      <trkpt lat="43.59185" lon="3.81684">
        <ele>28.131021</ele>
        <time>2021-10-27T13:51:37Z</time>
      </trkpt>
      <trkpt lat="43.59205" lon="3.81745">
        <ele>28.594309</ele>
        <time>2021-10-27T13:51:47Z</time>
      </trkpt>
      <trkpt lat="43.59238" lon="3.81786">
        <ele>28.880369</ele>
        <time>2021-10-27T13:51:57Z</time>
      </trkpt>
      <trkpt lat="43.59266" lon="3.8183">
        <ele>28.510836</ele>
        <time>2021-10-27T13:52:07Z</time>
      </trkpt>
      <trkpt lat="43.59278" lon="3.81897">
        <ele>27.75</ele>
        <time>2021-10-27T13:52:17Z</time>
      </trkpt>
      <trkpt lat="43.59288" lon="3.81951">
        <ele>27.008707</ele>
        <time>2021-10-27T13:52:27Z</time>
      </trkpt>
      <trkpt lat="43.59298" lon="3.81999">
        <ele>27.000132</ele>
        <time>2021-10-27T13:52:37Z</time>
      </trkpt>
      <trkpt lat="43.5933" lon="3.82031">
        <ele>27.512899</ele>
        <time>2021-10-27T13:52:47Z</time>
      </trkpt>
      <trkpt lat="43.59367" lon="3.82058">
        <ele>27.93564</ele>
        <time>2021-10-27T13:52:57Z</time>
      </trkpt>
      <trkpt lat="43.59342" lon="3.82087">
        <ele>28.104086</ele>
        <time>2021-10-27T13:53:07Z</time>
      </trkpt>
      <trkpt lat="43.59325" lon="3.82117">
        <ele>28.44248</ele>
        <time>2021-10-27T13:53:17Z</time>
      </trkpt>
      <trkpt lat="43.59327" lon="3.8214">
        <ele>29.148554</ele>
        <time>2021-10-27T13:53:27Z</time>
      </trkpt>
      <trkpt lat="43.59347" lon="3.82117">
        <ele>28.826105</ele>
        <time>2021-10-27T13:53:37Z</time>
      </trkpt>
      <trkpt lat="43.59368" lon="3.82097">
        <ele>28.267908</ele>
        <time>2021-10-27T13:53:47Z</time>
      </trkpt>
      <trkpt lat="43.59397" lon="3.82075">
        <ele>28.570236</ele>
        <time>2021-10-27T13:53:57Z</time>
      </trkpt>
      <trkpt lat="43.59422" lon="3.82099">
        <ele>32.326614</ele>
        <time>2021-10-27T13:54:07Z</time>
      </trkpt>
      <trkpt lat="43.59441" lon="3.82123">
        <ele>34.899914</ele>
        <time>2021-10-27T13:54:17Z</time>
      </trkpt>
      <trkpt lat="43.59464" lon="3.82142">
        <ele>37.810547</ele>
        <time>2021-10-27T13:54:27Z</time>
      </trkpt>
      <trkpt lat="43.59474" lon="3.82162">
        <ele>39.215088</ele>
        <time>2021-10-27T13:54:37Z</time>
      </trkpt>
      <trkpt lat="43.59479" lon="3.82187">
        <ele>40.653728</ele>
        <time>2021-10-27T13:54:47Z</time>
      </trkpt>
      <trkpt lat="43.59485" lon="3.82211">
        <ele>42.17041</ele>
        <time>2021-10-27T13:54:57Z</time>
      </trkpt>
      <trkpt lat="43.59499" lon="3.82235">
        <ele>43.749676</ele>
        <time>2021-10-27T13:55:07Z</time>
      </trkpt>
      <trkpt lat="43.59513" lon="3.82256">
        <ele>45.29541</ele>
        <time>2021-10-27T13:55:17Z</time>
      </trkpt>
      <trkpt lat="43.59525" lon="3.82273">
        <ele>46.648937</ele>
        <time>2021-10-27T13:55:27Z</time>
      </trkpt>
      <trkpt lat="43.59536" lon="3.8229">
        <ele>48.02779</ele>
        <time>2021-10-27T13:55:37Z</time>
      </trkpt>
      <trkpt lat="43.59547" lon="3.82304">
        <ele>49.518677</ele>
        <time>2021-10-27T13:55:47Z</time>
      </trkpt>
      <trkpt lat="43.59557" lon="3.82319">
        <ele>51.055958</ele>
        <time>2021-10-27T13:55:57Z</time>
      </trkpt>
      <trkpt lat="43.59567" lon="3.82333">
        <ele>52.482677</ele>
        <time>2021-10-27T13:56:07Z</time>
      </trkpt>
      <trkpt lat="43.59576" lon="3.82347">
        <ele>53.932373</ele>
        <time>2021-10-27T13:56:17Z</time>
      </trkpt>
      <trkpt lat="43.59586" lon="3.82362">
        <ele>55.270565</ele>
        <time>2021-10-27T13:56:27Z</time>
      </trkpt>
      <trkpt lat="43.59595" lon="3.82376">
        <ele>56.594707</ele>
        <time>2021-10-27T13:56:37Z</time>
      </trkpt>
      <trkpt lat="43.59605" lon="3.82393">
        <ele>58.166393</ele>
        <time>2021-10-27T13:56:47Z</time>
      </trkpt>
      <trkpt lat="43.59615" lon="3.82409">
        <ele>59.552036</ele>
        <time>2021-10-27T13:56:57Z</time>
      </trkpt>
      <trkpt lat="43.59627" lon="3.82427">
        <ele>60.977871</ele>
        <time>2021-10-27T13:57:07Z</time>
      </trkpt>
      <trkpt lat="43.59639" lon="3.82443">
        <ele>62.193954</ele>
        <time>2021-10-27T13:57:17Z</time>
      </trkpt>
      <trkpt lat="43.59652" lon="3.82458">
        <ele>63.457142</ele>
        <time>2021-10-27T13:57:27Z</time>
      </trkpt>
      <trkpt lat="43.59668" lon="3.82474">
        <ele>64.336243</ele>
        <time>2021-10-27T13:57:37Z</time>
      </trkpt>
      <trkpt lat="43.59695" lon="3.82509">
        <ele>65.228851</ele>
        <time>2021-10-27T13:57:47Z</time>
      </trkpt>
      <trkpt lat="43.59736" lon="3.82561">
        <ele>65.910118</ele>
        <time>2021-10-27T13:57:57Z</time>
      </trkpt>
      <trkpt lat="43.59782" lon="3.82614">
        <ele>64.976349</ele>
        <time>2021-10-27T13:58:07Z</time>
      </trkpt>
      <trkpt lat="43.59822" lon="3.8267">
        <ele>63.139679</ele>
        <time>2021-10-27T13:58:17Z</time>
      </trkpt>
      <trkpt lat="43.59845" lon="3.82722">
        <ele>62.589542</ele>
        <time>2021-10-27T13:58:27Z</time>
      </trkpt>
      <trkpt lat="43.59871" lon="3.82762">
        <ele>63.143269</ele>
        <time>2021-10-27T13:58:37Z</time>
      </trkpt>
      <trkpt lat="43.59899" lon="3.82793">
        <ele>64.535805</ele>
        <time>2021-10-27T13:58:47Z</time>
      </trkpt>
      <trkpt lat="43.59935" lon="3.82828">
        <ele>66.449066</ele>
        <time>2021-10-27T13:58:57Z</time>
      </trkpt>
      <trkpt lat="43.59984" lon="3.8286">
        <ele>66.944702</ele>
        <time>2021-10-27T13:59:07Z</time>
      </trkpt>
      <trkpt lat="43.6003" lon="3.82896">
        <ele>65.940445</ele>
        <time>2021-10-27T13:59:17Z</time>
      </trkpt>
      <trkpt lat="43.6007" lon="3.82935">
        <ele>64.629799</ele>
        <time>2021-10-27T13:59:27Z</time>
      </trkpt>
      <trkpt lat="43.60122" lon="3.82992">
        <ele>63.87294</ele>
        <time>2021-10-27T13:59:37Z</time>
      </trkpt>
    </trkseg>
  </trk>
</gpx>